Time,TemperatureF,DewpointF,PressureIn,WindDirection,WindDirectionDegrees,WindSpeedMPH,WindSpeedGustMPH,Humidity,HourlyPrecipIn,Conditions,Clouds,dailyrainin,SoftwareType,DateUTC
2013-05-13 00:02:00,47.8,7.6,17.72,NNW,338,0.0,0.0,19,0.00,,,0.00,WeatherTracker,2013-05-13 07:02:00,
2013-05-13 00:11:00,47.5,10.6,17.72,NNW,338,0.0,0.0,22,0.00,,,0.00,WeatherTracker,2013-05-13 07:11:00,
2013-05-13 00:21:00,46.8,10.0,17.72,NNW,338,0.0,0.0,22,0.00,,,0.00,WeatherTracker,2013-05-13 07:21:00,
2013-05-13 00:26:00,46.8,10.0,17.72,NNW,338,0.0,0.0,22,0.00,,,0.00,WeatherTracker,2013-05-13 07:26:00,
2013-05-13 00:31:00,46.8,10.0,17.72,NNW,338,0.0,0.0,22,0.00,,,0.00,WeatherTracker,2013-05-13 07:31:00,
2013-05-13 00:41:00,46.4,9.6,17.72,NNW,338,0.0,0.0,22,0.00,,,0.00,WeatherTracker,2013-05-13 07:41:00,
2013-05-13 00:51:00,46.0,12.2,17.72,NNW,338,0.0,0.0,25,0.00,,,0.00,WeatherTracker,2013-05-13 07:51:00,
2013-05-13 00:56:00,46.0,12.2,17.72,NNW,338,0.0,0.0,25,0.00,,,0.00,WeatherTracker,2013-05-13 07:56:00,
2013-05-13 01:01:00,46.0,12.2,17.72,NNW,338,0.0,0.0,25,0.00,,,0.00,WeatherTracker,2013-05-13 08:01:00,
2013-05-13 01:11:00,45.3,11.6,17.72,NNW,338,0.0,0.0,25,0.00,,,0.00,WeatherTracker,2013-05-13 08:11:00,
2013-05-13 01:16:00,45.3,11.6,17.72,NNW,338,0.0,0.0,25,0.00,,,0.00,WeatherTracker,2013-05-13 08:16:00,
2013-05-13 01:26:00,45.3,13.3,17.72,NNW,338,0.0,0.0,27,0.00,,,0.00,WeatherTracker,2013-05-13 08:26:00,
2013-05-13 01:31:00,44.8,12.9,17.72,NNW,338,0.0,0.0,27,0.00,,,0.00,WeatherTracker,2013-05-13 08:31:00,
2013-05-13 01:36:00,44.6,12.7,17.72,NNW,338,0.0,0.0,27,0.00,,,0.00,WeatherTracker,2013-05-13 08:36:00,
2013-05-13 01:46:00,44.1,13.1,17.72,NNW,338,0.0,0.0,28,0.00,,,0.00,WeatherTracker,2013-05-13 08:46:00,
2013-05-13 01:51:00,43.9,12.9,17.72,NNW,338,0.0,0.0,28,0.00,,,0.00,WeatherTracker,2013-05-13 08:51:00,
2013-05-13 01:56:00,43.7,12.8,17.72,NNW,338,0.0,0.0,28,0.00,,,0.00,WeatherTracker,2013-05-13 08:56:00,
2013-05-13 02:01:00,43.7,12.8,17.72,NNW,338,0.0,0.0,28,0.00,,,0.00,WeatherTracker,2013-05-13 09:01:00,
2013-05-13 02:11:00,43.9,12.9,17.72,NNW,338,0.0,0.0,28,0.00,,,0.00,WeatherTracker,2013-05-13 09:11:00,
2013-05-13 02:16:00,43.7,12.8,17.72,NNW,338,0.0,0.0,28,0.00,,,0.00,WeatherTracker,2013-05-13 09:16:00,
2013-05-13 02:26:00,43.5,12.6,17.72,NNW,338,0.0,0.0,28,0.00,,,0.00,WeatherTracker,2013-05-13 09:26:00,
2013-05-13 02:31:00,43.3,12.4,17.72,NNW,338,0.0,0.0,28,0.00,,,0.00,WeatherTracker,2013-05-13 09:31:00,
2013-05-13 02:41:00,43.2,13.1,17.72,NNW,338,0.0,0.0,29,0.00,,,0.00,WeatherTracker,2013-05-13 09:41:00,
2013-05-13 02:46:00,43.0,12.9,17.72,NNW,338,0.0,0.0,29,0.00,,,0.00,WeatherTracker,2013-05-13 09:46:00,
2013-05-13 02:51:00,43.0,12.9,17.72,NNW,338,0.0,0.0,29,0.00,,,0.00,WeatherTracker,2013-05-13 09:51:00,
2013-05-13 03:01:00,42.4,12.5,17.72,NNW,338,0.0,0.0,29,0.00,,,0.00,WeatherTracker,2013-05-13 10:01:00,
2013-05-13 03:11:00,42.4,12.5,17.72,NNW,338,0.0,0.0,29,0.00,,,0.00,WeatherTracker,2013-05-13 10:11:00,
2013-05-13 03:16:00,42.4,13.2,17.72,NNW,338,0.0,0.0,30,0.00,,,0.00,WeatherTracker,2013-05-13 10:16:00,
2013-05-13 03:21:00,42.1,12.9,17.72,NNW,338,0.0,0.0,30,0.00,,,0.00,WeatherTracker,2013-05-13 10:21:00,
2013-05-13 03:26:00,42.1,12.9,17.72,NNW,338,0.0,0.0,30,0.00,,,0.00,WeatherTracker,2013-05-13 10:26:00,
2013-05-13 03:36:00,41.7,12.6,17.72,NNW,338,0.0,0.0,30,0.00,,,0.00,WeatherTracker,2013-05-13 10:36:00,
2013-05-13 03:46:00,41.5,12.4,17.72,NNW,338,0.0,0.0,30,0.00,,,0.00,WeatherTracker,2013-05-13 10:46:00,
2013-05-13 03:51:00,41.5,13.2,17.72,NNW,338,0.0,0.0,31,0.00,,,0.00,WeatherTracker,2013-05-13 10:51:00,
2013-05-13 03:56:00,41.4,13.0,17.72,NNW,338,0.0,0.0,31,0.00,,,0.00,WeatherTracker,2013-05-13 10:56:00,
2013-05-13 04:06:00,41.2,12.9,17.72,NNW,338,0.0,0.0,31,0.00,,,0.00,WeatherTracker,2013-05-13 11:06:00,
2013-05-13 04:11:00,40.8,13.3,17.72,NNW,338,0.0,0.0,32,0.00,,,0.00,WeatherTracker,2013-05-13 11:11:00,
2013-05-13 04:21:00,40.6,13.1,17.72,NNW,338,0.0,0.0,32,0.00,,,0.00,WeatherTracker,2013-05-13 11:21:00,
2013-05-13 04:26:00,40.5,13.0,17.72,NNW,338,0.0,0.0,32,0.00,,,0.00,WeatherTracker,2013-05-13 11:26:00,
2013-05-13 04:31:00,40.1,13.3,17.72,NNW,338,0.0,0.0,33,0.00,,,0.00,WeatherTracker,2013-05-13 11:31:00,
2013-05-13 04:36:00,40.1,13.3,17.72,NNW,338,0.0,0.0,33,0.00,,,0.00,WeatherTracker,2013-05-13 11:36:00,
2013-05-13 04:46:00,40.3,13.5,17.72,NNW,338,0.0,0.0,33,0.00,,,0.00,WeatherTracker,2013-05-13 11:46:00,
2013-05-13 04:51:00,40.3,13.5,17.72,NNW,338,0.0,0.0,33,0.00,,,0.00,WeatherTracker,2013-05-13 11:51:00,
2013-05-13 04:56:00,40.3,13.5,17.72,NNW,338,0.0,0.0,33,0.00,,,0.00,WeatherTracker,2013-05-13 11:56:00,
2013-05-13 05:01:00,40.3,13.5,17.72,NNW,338,0.0,0.0,33,0.00,,,0.00,WeatherTracker,2013-05-13 12:01:00,
2013-05-13 05:06:00,39.9,13.9,17.72,NNW,338,0.0,0.0,34,0.00,,,0.00,WeatherTracker,2013-05-13 12:06:00,
2013-05-13 05:11:00,39.7,13.7,17.72,NNW,338,0.0,0.0,34,0.00,,,0.00,WeatherTracker,2013-05-13 12:11:00,
2013-05-13 05:16:00,39.4,14.0,17.72,NNW,338,0.0,0.0,35,0.00,,,0.00,WeatherTracker,2013-05-13 12:16:00,
2013-05-13 05:26:00,39.9,14.5,17.72,NNW,338,0.0,0.0,35,0.00,,,0.00,WeatherTracker,2013-05-13 12:26:00,
2013-05-13 05:31:00,39.9,14.5,17.72,NNW,338,0.0,0.0,35,0.00,,,0.00,WeatherTracker,2013-05-13 12:31:00,
2013-05-13 05:41:00,39.4,14.7,17.72,NNW,338,0.0,0.0,36,0.00,,,0.00,WeatherTracker,2013-05-13 12:41:00,
2013-05-13 05:46:00,39.6,14.8,17.72,NNW,338,0.0,0.0,36,0.00,,,0.00,WeatherTracker,2013-05-13 12:46:00,
2013-05-13 05:56:00,39.9,15.2,17.72,NNW,338,0.0,0.0,36,0.00,,,0.00,WeatherTracker,2013-05-13 12:56:00,
2013-05-13 06:06:00,40.1,15.9,17.72,NNW,338,0.0,0.0,37,0.00,,,0.00,WeatherTracker,2013-05-13 13:06:00,
2013-05-13 06:11:00,40.3,16.1,17.72,NNW,338,0.0,0.0,37,0.00,,,0.00,WeatherTracker,2013-05-13 13:11:00,
2013-05-13 06:16:00,40.1,15.9,17.72,NNW,338,0.0,0.0,37,0.00,,,0.00,WeatherTracker,2013-05-13 13:16:00,
2013-05-13 06:21:00,40.3,16.7,17.72,NNW,338,0.0,0.0,38,0.00,,,0.00,WeatherTracker,2013-05-13 13:21:00,
2013-05-13 06:31:00,40.6,17.0,17.72,NNW,338,0.0,0.0,38,0.00,,,0.00,WeatherTracker,2013-05-13 13:31:00,
2013-05-13 06:41:00,41.5,18.4,17.72,NNW,338,0.0,0.0,39,0.00,,,0.00,WeatherTracker,2013-05-13 13:41:00,
2013-05-13 06:46:00,42.1,18.9,17.72,NNW,338,0.0,0.0,39,0.00,,,0.00,WeatherTracker,2013-05-13 13:46:00,
2013-05-13 06:51:00,42.8,19.6,17.72,NNW,338,0.0,0.0,39,0.00,,,0.00,WeatherTracker,2013-05-13 13:51:00,
2013-05-13 07:01:00,44.1,20.1,17.72,NNW,338,0.0,0.0,38,0.00,,,0.00,WeatherTracker,2013-05-13 14:01:00,
2013-05-13 07:06:00,44.6,20.6,17.72,NNW,338,0.0,0.0,38,0.00,,,0.00,WeatherTracker,2013-05-13 14:06:00,
2013-05-13 07:16:00,46.4,22.2,17.72,NNW,338,0.0,0.0,38,0.00,,,0.00,WeatherTracker,2013-05-13 14:16:00,
2013-05-13 07:21:00,47.3,23.0,17.72,NNW,338,0.0,0.0,38,0.00,,,0.00,WeatherTracker,2013-05-13 14:21:00,
2013-05-13 07:26:00,48.0,23.6,17.72,NNW,338,0.0,0.0,38,0.00,,,0.00,WeatherTracker,2013-05-13 14:26:00,
2013-05-13 07:36:00,50.0,24.8,17.72,NNW,338,0.0,0.0,37,0.00,,,0.00,WeatherTracker,2013-05-13 14:36:00,
2013-05-13 07:41:00,51.1,25.7,17.72,NNW,338,0.0,0.0,37,0.00,,,0.00,WeatherTracker,2013-05-13 14:41:00,
2013-05-13 07:51:00,54.0,27.6,17.72,NNW,338,0.0,0.0,36,0.00,,,0.00,WeatherTracker,2013-05-13 14:51:00,
2013-05-13 08:01:00,57.2,25.2,17.72,NNW,338,0.0,0.0,29,0.00,,,0.00,WeatherTracker,2013-05-13 15:01:00,
2013-05-13 08:06:00,58.1,23.4,17.72,NNW,338,0.0,0.0,26,0.00,,,0.00,WeatherTracker,2013-05-13 15:06:00,
2013-05-13 08:11:00,59.2,22.4,17.72,ENE,65,0.0,0.0,24,0.00,,,0.00,WeatherTracker,2013-05-13 15:11:00,
2013-05-13 08:16:00,60.1,21.1,17.72,SE,129,0.0,0.0,22,0.00,,,0.00,WeatherTracker,2013-05-13 15:16:00,
2013-05-13 08:26:00,61.3,18.7,17.72,SE,134,0.0,0.0,19,0.00,,,0.00,WeatherTracker,2013-05-13 15:26:00,
2013-05-13 08:31:00,61.9,15.2,17.72,SE,127,2.0,0.0,16,0.00,,,0.00,WeatherTracker,2013-05-13 15:31:00,
2013-05-13 08:36:00,63.0,16.1,17.72,ESE,122,3.0,3.0,16,0.00,,,0.00,WeatherTracker,2013-05-13 15:36:00,
2013-05-13 08:41:00,63.9,16.8,17.72,ESE,106,3.0,4.0,16,0.00,,,0.00,WeatherTracker,2013-05-13 15:41:00,
2013-05-13 08:46:00,64.4,15.8,17.72,SE,140,0.0,0.0,15,0.00,,,0.00,WeatherTracker,2013-05-13 15:46:00,
2013-05-13 08:51:00,64.9,16.2,17.72,SE,143,2.0,3.0,15,0.00,,,0.00,WeatherTracker,2013-05-13 15:51:00,
2013-05-13 09:01:00,66.0,13.8,17.72,ESE,122,3.0,4.0,13,0.00,,,0.00,WeatherTracker,2013-05-13 16:01:00,
2013-05-13 09:06:00,66.4,12.2,17.72,SE,140,3.0,0.0,12,0.00,,,0.00,WeatherTracker,2013-05-13 16:06:00,
2013-05-13 09:11:00,66.9,12.7,17.72,ENE,74,3.0,4.0,12,0.00,,,0.00,WeatherTracker,2013-05-13 16:11:00,
2013-05-13 09:16:00,67.5,13.1,17.72,East,85,4.0,0.0,12,0.00,,,0.00,WeatherTracker,2013-05-13 16:16:00,
2013-05-13 09:21:00,68.0,13.5,17.72,ESE,112,2.0,3.0,12,0.00,,,0.00,WeatherTracker,2013-05-13 16:21:00,
2013-05-13 09:31:00,68.9,14.2,17.72,South,173,3.0,3.0,12,0.00,,,0.00,WeatherTracker,2013-05-13 16:31:00,
2013-05-13 09:36:00,69.4,14.6,17.72,ENE,69,0.0,0.0,12,0.00,,,0.00,WeatherTracker,2013-05-13 16:36:00,
2013-05-13 09:41:00,70.2,15.2,17.72,South,180,3.0,0.0,12,0.00,,,0.00,WeatherTracker,2013-05-13 16:41:00,
2013-05-13 09:46:00,70.5,15.5,17.72,ENE,75,3.0,3.0,12,0.00,,,0.00,WeatherTracker,2013-05-13 16:46:00,
2013-05-13 09:51:00,70.9,15.8,17.72,SSE,152,4.0,4.0,12,0.00,,,0.00,WeatherTracker,2013-05-13 16:51:00,
2013-05-13 09:56:00,71.2,9.5,17.72,ESE,112,3.0,3.0,9,0.00,,,0.00,WeatherTracker,2013-05-13 16:56:00,
2013-05-13 10:01:00,71.8,9.9,17.72,ESE,123,4.0,4.0,9,0.00,,,0.00,WeatherTracker,2013-05-13 17:01:00,
2013-05-13 10:06:00,72.0,10.1,17.72,SE,127,0.0,5.0,9,0.00,,,0.00,WeatherTracker,2013-05-13 17:06:00,
2013-05-13 10:11:00,72.7,10.6,17.72,ESE,114,0.0,4.0,9,0.00,,,0.00,WeatherTracker,2013-05-13 17:11:00,
2013-05-13 10:21:00,72.7,10.6,17.72,SE,140,0.0,0.0,9,0.00,,,0.00,WeatherTracker,2013-05-13 17:21:00,
2013-05-13 10:26:00,73.6,8.7,17.72,SE,131,4.0,0.0,8,0.00,,,0.00,WeatherTracker,2013-05-13 17:26:00,
2013-05-13 10:31:00,73.9,8.9,17.72,ESE,120,0.0,0.0,8,0.00,,,0.00,WeatherTracker,2013-05-13 17:31:00,
2013-05-13 10:41:00,75.0,9.7,17.72,SE,134,2.0,4.0,8,0.00,,,0.00,WeatherTracker,2013-05-13 17:41:00,
2013-05-13 10:46:00,75.6,10.1,17.72,NE,53,0.0,0.0,8,0.00,,,0.00,WeatherTracker,2013-05-13 17:46:00,
2013-05-13 10:51:00,75.6,10.1,17.72,SE,134,3.0,3.0,8,0.00,,,0.00,WeatherTracker,2013-05-13 17:51:00,
2013-05-13 10:56:00,76.1,10.5,17.72,SSE,161,2.0,0.0,8,0.00,,,0.00,WeatherTracker,2013-05-13 17:56:00,
2013-05-13 11:01:00,76.3,10.7,17.72,SSW,206,4.0,4.0,8,0.00,,,0.00,WeatherTracker,2013-05-13 18:01:00,
2013-05-13 11:06:00,76.1,10.5,17.72,SE,124,2.0,5.0,8,0.00,,,0.00,WeatherTracker,2013-05-13 18:06:00,
2013-05-13 11:11:00,76.5,10.8,17.72,ENE,67,0.0,0.0,8,0.00,,,0.00,WeatherTracker,2013-05-13 18:11:00,
2013-05-13 11:21:00,76.5,10.8,17.72,SSE,168,4.0,4.0,8,0.00,,,0.00,WeatherTracker,2013-05-13 18:21:00,
2013-05-13 11:26:00,77.0,11.2,17.72,WNW,286,0.0,3.0,8,0.00,,,0.00,WeatherTracker,2013-05-13 18:26:00,
2013-05-13 11:31:00,76.5,10.8,17.72,NNE,27,2.0,0.0,8,0.00,,,0.00,WeatherTracker,2013-05-13 18:31:00,
2013-05-13 11:36:00,76.8,11.1,17.72,ENE,66,0.0,0.0,8,0.00,,,0.00,WeatherTracker,2013-05-13 18:36:00,
2013-05-13 11:41:00,77.5,11.6,17.72,ESE,122,0.0,0.0,8,0.00,,,0.00,WeatherTracker,2013-05-13 18:41:00,
2013-05-13 11:46:00,78.6,12.4,17.72,South,180,0.0,0.0,8,0.00,,,0.00,WeatherTracker,2013-05-13 18:46:00,
2013-05-13 11:56:00,79.2,9.8,17.72,SE,132,4.0,4.0,7,0.00,,,0.00,WeatherTracker,2013-05-13 18:56:00,
2013-05-13 12:01:00,79.7,10.2,17.72,SE,130,3.0,3.0,7,0.00,,,0.00,WeatherTracker,2013-05-13 19:01:00,
2013-05-13 12:06:00,80.4,10.7,17.72,SE,124,4.0,4.0,7,0.00,,,0.00,WeatherTracker,2013-05-13 19:06:00,
2013-05-13 12:11:00,80.6,10.9,17.72,SE,125,3.0,5.0,7,0.00,,,0.00,WeatherTracker,2013-05-13 19:11:00,
2013-05-13 12:16:00,80.8,11.0,17.72,South,170,3.0,3.0,7,0.00,,,0.00,WeatherTracker,2013-05-13 19:16:00,
2013-05-13 12:21:00,81.1,11.3,17.72,NE,52,0.0,0.0,7,0.00,,,0.00,WeatherTracker,2013-05-13 19:21:00,
2013-05-13 12:31:00,80.6,10.9,17.72,NNW,327,3.0,3.0,7,0.00,,,0.00,WeatherTracker,2013-05-13 19:31:00,
2013-05-13 12:41:00,81.0,11.1,17.72,ENE,73,4.0,4.0,7,0.00,,,0.00,WeatherTracker,2013-05-13 19:41:00,
2013-05-13 12:51:00,82.0,11.9,17.72,SW,235,4.0,5.0,7,0.00,,,0.00,WeatherTracker,2013-05-13 19:51:00,
2013-05-13 12:56:00,82.2,12.0,17.72,ESE,123,0.0,0.0,7,0.00,,,0.00,WeatherTracker,2013-05-13 19:56:00,
2013-05-13 13:01:00,81.7,11.6,17.72,West,266,3.0,3.0,7,0.00,,,0.00,WeatherTracker,2013-05-13 20:01:00,
2013-05-13 13:06:00,81.3,11.4,17.72,North,3,3.0,0.0,7,0.00,,,0.00,WeatherTracker,2013-05-13 20:06:00,
2013-05-13 13:11:00,81.5,11.5,17.72,SSW,210,0.0,0.0,7,0.00,,,0.00,WeatherTracker,2013-05-13 20:11:00,
2013-05-13 13:16:00,81.7,11.6,17.72,NNE,27,3.0,0.0,7,0.00,,,0.00,WeatherTracker,2013-05-13 20:16:00,
2013-05-13 13:26:00,80.6,10.9,17.72,SSE,162,0.0,0.0,7,0.00,,,0.00,WeatherTracker,2013-05-13 20:26:00,
2013-05-13 13:31:00,81.3,11.4,17.72,SE,124,5.0,5.0,7,0.00,,,0.00,WeatherTracker,2013-05-13 20:31:00,
2013-05-13 13:41:00,82.9,9.1,17.72,SE,135,3.0,4.0,6,0.00,,,0.00,WeatherTracker,2013-05-13 20:41:00,
2013-05-13 13:46:00,83.3,9.4,17.72,SW,229,2.0,3.0,6,0.00,,,0.00,WeatherTracker,2013-05-13 20:46:00,
2013-05-13 13:51:00,84.0,9.9,17.72,SE,136,3.0,0.0,6,0.00,,,0.00,WeatherTracker,2013-05-13 20:51:00,
2013-05-13 13:56:00,84.0,9.9,17.72,ESE,122,3.0,4.0,6,0.00,,,0.00,WeatherTracker,2013-05-13 20:56:00,
2013-05-13 14:01:00,84.2,10.0,17.72,SE,138,3.0,3.0,6,0.00,,,0.00,WeatherTracker,2013-05-13 21:01:00,
2013-05-13 14:11:00,83.1,9.2,17.72,ESE,113,3.0,0.0,6,0.00,,,0.00,WeatherTracker,2013-05-13 21:11:00,
2013-05-13 14:16:00,81.7,11.6,17.72,South,172,0.0,0.0,7,0.00,,,0.00,WeatherTracker,2013-05-13 21:16:00,
2013-05-13 14:26:00,79.0,9.7,17.72,NNE,27,0.0,0.0,7,0.00,,,0.00,WeatherTracker,2013-05-13 21:26:00,
2013-05-13 14:31:00,78.1,12.0,17.72,NNW,348,3.0,3.0,8,0.00,,,0.00,WeatherTracker,2013-05-13 21:31:00,
2013-05-13 14:36:00,77.9,11.9,17.72,WNW,299,0.0,0.0,8,0.00,,,0.00,WeatherTracker,2013-05-13 21:36:00,
2013-05-13 14:41:00,77.7,11.7,17.72,North,1,0.0,0.0,8,0.00,,,0.00,WeatherTracker,2013-05-13 21:41:00,
2013-05-13 14:51:00,77.4,11.5,17.72,East,91,2.0,2.0,8,0.00,,,0.00,WeatherTracker,2013-05-13 21:51:00,
2013-05-13 14:56:00,78.1,12.0,17.72,SSE,162,4.0,4.0,8,0.00,,,0.00,WeatherTracker,2013-05-13 21:56:00,
2013-05-13 15:01:00,77.9,11.9,17.72,NNE,26,2.0,4.0,8,0.00,,,0.00,WeatherTracker,2013-05-13 22:01:00,
2013-05-13 15:06:00,77.2,11.3,17.72,East,90,0.0,0.0,8,0.00,,,0.00,WeatherTracker,2013-05-13 22:06:00,
2013-05-13 15:11:00,77.2,11.3,17.72,SE,133,0.0,3.0,8,0.00,,,0.00,WeatherTracker,2013-05-13 22:11:00,
2013-05-13 15:16:00,78.1,12.0,17.72,SW,224,4.0,4.0,8,0.00,,,0.00,WeatherTracker,2013-05-13 22:16:00,
2013-05-13 15:21:00,78.3,12.1,17.72,NE,41,0.0,3.0,8,0.00,,,0.00,WeatherTracker,2013-05-13 22:21:00,
2013-05-13 15:26:00,77.7,11.7,17.72,NE,48,0.0,0.0,8,0.00,,,0.00,WeatherTracker,2013-05-13 22:26:00,
2013-05-13 15:36:00,77.4,11.5,17.72,ESE,104,0.0,0.0,8,0.00,,,0.00,WeatherTracker,2013-05-13 22:36:00,
2013-05-13 15:41:00,77.0,11.2,17.72,SE,126,0.0,0.0,8,0.00,,,0.00,WeatherTracker,2013-05-13 22:41:00,
2013-05-13 15:46:00,77.0,11.2,17.72,SSE,151,3.0,3.0,8,0.00,,,0.00,WeatherTracker,2013-05-13 22:46:00,
2013-05-13 15:51:00,77.0,11.2,17.72,NNE,30,0.0,0.0,8,0.00,,,0.00,WeatherTracker,2013-05-13 22:51:00,
2013-05-13 15:56:00,77.2,11.3,17.72,ENE,61,3.0,5.0,8,0.00,,,0.00,WeatherTracker,2013-05-13 22:56:00,
2013-05-13 16:01:00,77.2,11.3,17.72,SE,139,4.0,4.0,8,0.00,,,0.00,WeatherTracker,2013-05-13 23:01:00,
2013-05-13 16:06:00,77.4,11.5,17.72,ESE,119,3.0,6.0,8,0.00,,,0.00,WeatherTracker,2013-05-13 23:06:00,
2013-05-13 16:11:00,76.8,11.1,17.72,NNE,32,0.0,2.0,8,0.00,,,0.00,WeatherTracker,2013-05-13 23:11:00,
2013-05-13 16:16:00,76.1,10.5,17.72,NNE,33,0.0,0.0,8,0.00,,,0.00,WeatherTracker,2013-05-13 23:16:00,
2013-05-13 16:21:00,75.9,10.4,17.72,ENE,69,0.0,0.0,8,0.00,,,0.00,WeatherTracker,2013-05-13 23:21:00,
2013-05-13 16:31:00,75.7,10.3,17.72,ESE,115,0.0,0.0,8,0.00,,,0.00,WeatherTracker,2013-05-13 23:31:00,
2013-05-13 16:36:00,75.7,10.3,17.72,SSE,149,0.0,0.0,8,0.00,,,0.00,WeatherTracker,2013-05-13 23:36:00,
2013-05-13 16:46:00,75.6,10.1,17.72,SSW,192,3.0,3.0,8,0.00,,,0.00,WeatherTracker,2013-05-13 23:46:00,
2013-05-13 16:51:00,75.9,10.4,17.72,SSE,163,3.0,4.0,8,0.00,,,0.00,WeatherTracker,2013-05-13 23:51:00,
2013-05-13 16:56:00,76.1,10.5,17.72,ESE,119,3.0,3.0,8,0.00,,,0.00,WeatherTracker,2013-05-13 23:56:00,
2013-05-13 17:01:00,76.1,10.5,17.72,SE,131,4.0,4.0,8,0.00,,,0.00,WeatherTracker,2013-05-14 00:01:00,
2013-05-13 17:06:00,75.7,10.3,17.72,SE,146,4.0,0.0,8,0.00,,,0.00,WeatherTracker,2013-05-14 00:06:00,
2013-05-13 17:16:00,75.0,9.7,17.72,SSE,162,0.0,0.0,8,0.00,,,0.00,WeatherTracker,2013-05-14 00:16:00,
2013-05-13 17:21:00,74.7,9.5,17.72,SSE,149,0.0,0.0,8,0.00,,,0.00,WeatherTracker,2013-05-14 00:21:00,
2013-05-13 17:26:00,74.3,9.2,17.72,SE,137,0.0,0.0,8,0.00,,,0.00,WeatherTracker,2013-05-14 00:26:00,
2013-05-13 17:36:00,73.8,8.8,17.72,SSW,209,0.0,0.0,8,0.00,,,0.00,WeatherTracker,2013-05-14 00:36:00,
2013-05-13 17:41:00,73.2,11.0,17.72,South,179,0.0,0.0,9,0.00,,,0.00,WeatherTracker,2013-05-14 00:41:00,
2013-05-13 17:46:00,72.9,10.8,17.72,South,187,0.0,0.0,9,0.00,,,0.00,WeatherTracker,2013-05-14 00:46:00,
2013-05-13 17:56:00,71.8,9.9,17.72,SW,218,0.0,0.0,9,0.00,,,0.00,WeatherTracker,2013-05-14 00:56:00,
2013-05-13 18:01:00,71.2,9.5,17.72,SW,218,0.0,0.0,9,0.00,,,0.00,WeatherTracker,2013-05-14 01:01:00,
2013-05-13 18:11:00,70.5,9.0,17.72,SW,218,0.0,0.0,9,0.00,,,0.00,WeatherTracker,2013-05-14 01:11:00,
2013-05-13 18:16:00,70.0,8.6,17.72,SW,218,0.0,0.0,9,0.00,,,0.00,WeatherTracker,2013-05-14 01:16:00,
2013-05-13 18:21:00,69.3,10.4,17.72,SW,218,0.0,0.0,10,0.00,,,0.00,WeatherTracker,2013-05-14 01:21:00,
2013-05-13 18:26:00,69.1,10.2,17.72,SW,218,0.0,0.0,10,0.00,,,0.00,WeatherTracker,2013-05-14 01:26:00,
2013-05-13 18:31:00,68.7,10.0,17.72,SW,218,0.0,0.0,10,0.00,,,0.00,WeatherTracker,2013-05-14 01:31:00,
2013-05-13 18:36:00,68.5,9.8,17.72,SW,218,0.0,0.0,10,0.00,,,0.00,WeatherTracker,2013-05-14 01:36:00,
2013-05-13 18:46:00,68.2,9.6,17.72,SW,218,0.0,0.0,10,0.00,,,0.00,WeatherTracker,2013-05-14 01:46:00,
2013-05-13 18:51:00,68.0,9.4,17.72,SW,218,0.0,0.0,10,0.00,,,0.00,WeatherTracker,2013-05-14 01:51:00,
2013-05-13 18:56:00,67.8,9.3,17.72,SW,218,0.0,0.0,10,0.00,,,0.00,WeatherTracker,2013-05-14 01:56:00,
2013-05-13 19:06:00,67.3,8.9,17.72,SW,218,0.0,0.0,10,0.00,,,0.00,WeatherTracker,2013-05-14 02:06:00,
2013-05-13 19:11:00,66.9,8.6,17.72,SW,218,0.0,0.0,10,0.00,,,0.00,WeatherTracker,2013-05-14 02:11:00,
2013-05-13 19:16:00,66.7,8.5,17.72,SW,218,0.0,0.0,10,0.00,,,0.00,WeatherTracker,2013-05-14 02:16:00,
2013-05-13 19:21:00,66.6,8.3,17.72,SW,218,0.0,0.0,10,0.00,,,0.00,WeatherTracker,2013-05-14 02:21:00,
2013-05-13 19:26:00,66.4,8.2,17.72,SW,218,0.0,0.0,10,0.00,,,0.00,WeatherTracker,2013-05-14 02:26:00,
2013-05-13 19:31:00,66.2,8.0,17.72,SW,218,0.0,0.0,10,0.00,,,0.00,WeatherTracker,2013-05-14 02:31:00,
2013-05-13 19:41:00,65.8,7.8,17.72,SW,218,0.0,0.0,10,0.00,,,0.00,WeatherTracker,2013-05-14 02:41:00,
2013-05-13 19:46:00,65.7,7.6,17.72,SW,218,0.0,0.0,10,0.00,,,0.00,WeatherTracker,2013-05-14 02:46:00,
2013-05-13 19:51:00,65.3,7.4,17.72,SW,218,0.0,0.0,10,0.00,,,0.00,WeatherTracker,2013-05-14 02:51:00,
2013-05-13 19:56:00,64.8,6.9,17.72,SW,218,0.0,0.0,10,0.00,,,0.00,WeatherTracker,2013-05-14 02:56:00,
2013-05-13 20:01:00,64.4,6.7,17.72,SW,218,0.0,0.0,10,0.00,,,0.00,WeatherTracker,2013-05-14 03:01:00,
2013-05-13 20:06:00,63.9,8.3,17.72,SW,218,0.0,0.0,11,0.00,,,0.00,WeatherTracker,2013-05-14 03:06:00,
2013-05-13 20:11:00,63.3,7.9,17.72,SW,218,0.0,0.0,11,0.00,,,0.00,WeatherTracker,2013-05-14 03:11:00,
2013-05-13 20:16:00,62.6,7.4,17.72,SW,218,0.0,0.0,11,0.00,,,0.00,WeatherTracker,2013-05-14 03:16:00,
2013-05-13 20:21:00,62.1,12.3,17.72,SW,218,0.0,0.0,14,0.00,,,0.00,WeatherTracker,2013-05-14 03:21:00,
2013-05-13 20:26:00,61.5,11.9,17.72,SW,218,0.0,0.0,14,0.00,,,0.00,WeatherTracker,2013-05-14 03:26:00,
2013-05-13 20:31:00,61.3,11.8,17.72,SW,218,0.0,0.0,14,0.00,,,0.00,WeatherTracker,2013-05-14 03:31:00,
2013-05-13 20:36:00,60.6,11.2,17.72,SW,218,0.0,0.0,14,0.00,,,0.00,WeatherTracker,2013-05-14 03:36:00,
2013-05-13 20:46:00,59.4,10.2,17.72,SW,218,0.0,0.0,14,0.00,,,0.00,WeatherTracker,2013-05-14 03:46:00,
2013-05-13 20:51:00,59.4,10.2,17.72,SW,218,0.0,0.0,14,0.00,,,0.00,WeatherTracker,2013-05-14 03:51:00,
2013-05-13 20:56:00,59.2,10.0,17.72,SW,218,0.0,0.0,14,0.00,,,0.00,WeatherTracker,2013-05-14 03:56:00,
2013-05-13 21:01:00,59.0,9.9,17.72,SW,218,0.0,0.0,14,0.00,,,0.00,WeatherTracker,2013-05-14 04:01:00,
2013-05-13 21:06:00,59.0,9.9,17.72,SW,218,0.0,0.0,14,0.00,,,0.00,WeatherTracker,2013-05-14 04:06:00,
2013-05-13 21:11:00,59.0,9.9,17.72,SW,218,0.0,0.0,14,0.00,,,0.00,WeatherTracker,2013-05-14 04:11:00,
2013-05-13 21:16:00,58.8,9.7,17.72,SW,218,0.0,0.0,14,0.00,,,0.00,WeatherTracker,2013-05-14 04:16:00,
2013-05-13 21:21:00,58.5,9.5,17.72,SW,218,0.0,0.0,14,0.00,,,0.00,WeatherTracker,2013-05-14 04:21:00,
2013-05-13 21:26:00,58.1,9.2,17.72,SW,218,0.0,0.0,14,0.00,,,0.00,WeatherTracker,2013-05-14 04:26:00,
2013-05-13 21:31:00,57.9,9.0,17.72,SW,218,0.0,0.0,14,0.00,,,0.00,WeatherTracker,2013-05-14 04:31:00,
2013-05-13 21:36:00,57.6,8.7,17.72,SW,218,0.0,0.0,14,0.00,,,0.00,WeatherTracker,2013-05-14 04:36:00,
2013-05-13 21:41:00,57.2,8.5,17.72,SW,218,0.0,0.0,14,0.00,,,0.00,WeatherTracker,2013-05-14 04:41:00,
2013-05-13 21:46:00,56.7,9.6,17.72,SW,218,0.0,0.0,15,0.00,,,0.00,WeatherTracker,2013-05-14 04:46:00,
2013-05-13 21:51:00,56.3,12.1,17.72,SW,218,0.0,0.0,17,0.00,,,0.00,WeatherTracker,2013-05-14 04:51:00,
2013-05-13 22:01:00,55.9,11.8,17.72,SW,218,0.0,0.0,17,0.00,,,0.00,WeatherTracker,2013-05-14 05:01:00,
2013-05-13 22:06:00,55.8,11.6,17.72,SW,218,0.0,0.0,17,0.00,,,0.00,WeatherTracker,2013-05-14 05:06:00,
2013-05-13 22:11:00,55.6,11.5,17.72,SW,218,0.0,0.0,17,0.00,,,0.00,WeatherTracker,2013-05-14 05:11:00,
2013-05-13 22:21:00,55.0,12.3,17.72,SW,218,0.0,0.0,18,0.00,,,0.00,WeatherTracker,2013-05-14 05:21:00,
2013-05-13 22:26:00,54.3,11.7,17.72,SW,218,0.0,0.0,18,0.00,,,0.00,WeatherTracker,2013-05-14 05:26:00,
2013-05-13 22:31:00,54.1,14.0,17.72,SW,218,0.0,0.0,20,0.00,,,0.00,WeatherTracker,2013-05-14 05:31:00,
2013-05-13 22:36:00,54.0,13.8,17.72,SW,218,0.0,0.0,20,0.00,,,0.00,WeatherTracker,2013-05-14 05:36:00,
2013-05-13 22:41:00,54.0,13.8,17.72,SW,218,0.0,0.0,20,0.00,,,0.00,WeatherTracker,2013-05-14 05:41:00,
2013-05-13 22:46:00,53.8,13.7,17.72,SW,218,0.0,0.0,20,0.00,,,0.00,WeatherTracker,2013-05-14 05:46:00,
2013-05-13 22:51:00,53.4,14.5,17.72,SW,218,0.0,0.0,21,0.00,,,0.00,WeatherTracker,2013-05-14 05:51:00,
2013-05-13 22:56:00,53.1,14.2,17.72,SW,218,0.0,0.0,21,0.00,,,0.00,WeatherTracker,2013-05-14 05:56:00,
2013-05-13 23:01:00,52.5,15.8,17.72,SW,218,0.0,0.0,23,0.00,,,0.00,WeatherTracker,2013-05-14 06:01:00,
2013-05-13 23:06:00,52.3,15.7,17.72,SW,218,0.0,0.0,23,0.00,,,0.00,WeatherTracker,2013-05-14 06:06:00,
2013-05-13 23:11:00,52.2,15.5,17.72,SW,218,0.0,0.0,23,0.00,,,0.00,WeatherTracker,2013-05-14 06:11:00,
2013-05-13 23:16:00,52.2,15.5,17.72,SW,218,0.0,0.0,23,0.00,,,0.00,WeatherTracker,2013-05-14 06:16:00,
2013-05-13 23:21:00,51.8,15.2,17.72,SW,218,0.0,0.0,23,0.00,,,0.00,WeatherTracker,2013-05-14 06:21:00,
2013-05-13 23:26:00,51.4,15.9,17.72,SW,218,0.0,0.0,24,0.00,,,0.00,WeatherTracker,2013-05-14 06:26:00,
2013-05-13 23:31:00,51.3,15.7,17.72,SW,218,0.0,0.0,24,0.00,,,0.00,WeatherTracker,2013-05-14 06:31:00,
2013-05-13 23:36:00,50.9,17.3,17.72,SW,218,0.0,0.0,26,0.00,,,0.00,WeatherTracker,2013-05-14 06:36:00,
2013-05-13 23:46:00,50.2,16.6,17.72,SW,218,0.0,0.0,26,0.00,,,0.00,WeatherTracker,2013-05-14 06:46:00,
2013-05-13 23:51:00,50.4,16.8,17.72,SW,218,0.0,0.0,26,0.00,,,0.00,WeatherTracker,2013-05-14 06:51:00,
2013-05-13 23:56:00,50.7,17.1,17.72,SW,218,0.0,0.0,26,0.00,,,0.00,WeatherTracker,2013-05-14 06:56:00,